createdAt,value
2023-02-25T00:02:04.812Z,11.09
2023-02-25T00:04:35.088Z,11.12
2023-02-25T00:07:04.696Z,11.19
2023-02-25T00:09:34.144Z,11.35
2023-02-25T00:12:07.249Z,11.07
2023-02-25T00:14:40.087Z,11.20
2023-02-25T00:17:10.554Z,10.97
2023-02-25T00:19:47.013Z,11.05
2023-02-25T00:22:15.125Z,10.70
2023-02-25T00:24:46.756Z,10.85
2023-02-25T00:27:21.853Z,11.03
2023-02-25T00:29:54.168Z,11.05
2023-02-25T00:32:30.653Z,11.07
2023-02-25T00:35:01.870Z,10.75
2023-02-25T00:37:32.790Z,10.49
2023-02-25T00:40:02.282Z,10.60
2023-02-25T00:42:33.214Z,10.22
2023-02-25T00:45:02.709Z,10.34
2023-02-25T00:47:32.810Z,10.43
2023-02-25T00:50:03.983Z,10.62
2023-02-25T00:52:34.294Z,10.31
2023-02-25T00:55:05.602Z,10.17
2023-02-25T00:57:48.940Z,10.27
2023-02-25T01:00:20.710Z,10.36
2023-02-25T01:02:50.881Z,10.04
2023-02-25T01:05:23.077Z,9.89
2023-02-25T01:07:52.773Z,9.99
2023-02-25T01:10:25.944Z,9.97
2023-02-25T01:13:00.012Z,9.91
2023-02-25T01:15:32.064Z,9.91
2023-02-25T01:18:05.038Z,9.80
2023-02-25T01:20:37.288Z,9.85
2023-02-25T01:23:11.746Z,9.78
2023-02-25T01:25:42.229Z,9.63
2023-02-25T01:28:15.276Z,9.57
2023-02-25T01:30:51.264Z,9.54
2023-02-25T01:33:28.295Z,9.31
2023-02-25T01:35:58.197Z,9.23
2023-02-25T01:38:26.342Z,9.02
2023-02-25T01:40:59.176Z,9.13
2023-02-25T01:43:29.977Z,9.13
2023-02-25T01:46:00.854Z,8.96
2023-02-25T01:48:41.708Z,8.78
2023-02-25T01:51:14.651Z,8.58
2023-02-25T01:53:53.677Z,8.40
2023-02-25T01:56:57.061Z,8.28
2023-02-25T01:59:30.183Z,8.10
2023-02-25T02:02:02.918Z,8.19
2023-02-25T02:04:35.743Z,8.07
2023-02-25T02:07:06.748Z,8.14
2023-02-25T02:09:35.382Z,8.13
2023-02-25T02:12:07.197Z,8.15
2023-02-25T02:14:42.448Z,7.93
2023-02-25T02:17:19.744Z,7.90
2023-02-25T02:20:14.193Z,7.56
2023-02-25T02:22:55.471Z,7.84
2023-02-25T02:26:03.642Z,7.57
2023-02-25T02:29:24.379Z,7.52
2023-02-25T02:32:10.301Z,7.55
2023-02-25T02:34:44.051Z,7.69
2023-02-25T02:37:31.043Z,7.52
2023-02-25T02:40:16.872Z,7.57
2023-02-25T02:42:59.040Z,7.53
2023-02-25T02:45:39.210Z,7.61
2023-02-25T02:48:13.625Z,7.54
2023-02-25T02:50:46.714Z,7.62
2023-02-25T02:53:19.694Z,7.75
2023-02-25T02:55:55.373Z,7.56
2023-02-25T02:58:31.609Z,7.44
2023-02-25T03:01:13.095Z,7.64
2023-02-25T03:03:49.483Z,7.57
2023-02-25T03:06:25.943Z,7.40
2023-02-25T03:09:00.821Z,7.45
2023-02-25T03:11:32.562Z,7.24
2023-02-25T03:14:02.158Z,7.81
2023-02-25T03:16:36.221Z,7.20
2023-02-25T03:19:22.841Z,7.23
2023-02-25T03:21:58.085Z,7.04
2023-02-25T03:24:32.653Z,7.02
2023-02-25T03:27:12.210Z,6.69
2023-02-25T03:29:41.181Z,6.89
2023-02-25T03:32:23.317Z,6.33
2023-02-25T03:35:03.672Z,6.60
2023-02-25T03:37:34.087Z,6.37
2023-02-25T03:40:12.792Z,6.30
2023-02-25T03:42:51.118Z,6.40
2023-02-25T03:45:21.820Z,6.34
2023-02-25T03:47:52.840Z,6.62
2023-02-25T03:50:43.334Z,6.33
2023-02-25T03:53:19.143Z,6.44
2023-02-25T03:55:54.873Z,5.95
2023-02-25T03:58:29.047Z,6.26
2023-02-25T04:01:05.033Z,6.19
2023-02-25T04:03:36.136Z,6.25
2023-02-25T04:06:31.321Z,6.34
2023-02-25T04:09:04.638Z,6.74
2023-02-25T04:11:36.485Z,6.64
2023-02-25T04:14:08.226Z,6.36
2023-02-25T04:16:37.626Z,6.29
2023-02-25T04:19:06.533Z,6.22
2023-02-25T04:21:51.898Z,6.23
2023-02-25T04:24:22.596Z,6.21
2023-02-25T04:27:01.918Z,6.17
2023-02-25T04:29:35.133Z,5.98
2023-02-25T04:32:07.565Z,5.84
2023-02-25T04:34:39.596Z,5.87
2023-02-25T04:37:13.983Z,5.71
2023-02-25T04:39:45.108Z,5.78
2023-02-25T04:42:22.083Z,5.70
2023-02-25T04:44:58.593Z,5.76
2023-02-25T04:47:28.242Z,5.96
2023-02-25T04:49:56.889Z,5.70
2023-02-25T04:52:26.392Z,5.64
2023-02-25T04:54:56.902Z,5.72
2023-02-25T04:57:36.450Z,5.75
2023-02-25T05:00:10.535Z,5.50
2023-02-25T05:02:48.184Z,5.69
2023-02-25T05:05:28.403Z,5.55
2023-02-25T05:08:00.643Z,5.42
2023-02-25T05:10:30.405Z,5.62
2023-02-25T05:13:02.239Z,5.66
2023-02-25T05:15:31.051Z,5.71
2023-02-25T05:18:08.440Z,5.72
2023-02-25T05:20:44.533Z,5.64
2023-02-25T05:23:28.220Z,5.61
2023-02-25T05:26:01.511Z,5.58
2023-02-25T05:28:30.988Z,5.46
2023-02-25T05:31:08.078Z,5.57
2023-02-25T05:33:44.511Z,5.58
2023-02-25T05:36:15.327Z,5.32
2023-02-25T05:38:46.531Z,5.37
2023-02-25T05:41:27.187Z,5.53
2023-02-25T05:44:01.036Z,5.61
2023-02-25T05:46:38.862Z,5.65
2023-02-25T05:49:09.618Z,5.70
2023-02-25T05:51:41.576Z,5.57
2023-02-25T05:54:23.980Z,5.45
2023-02-25T05:56:58.015Z,5.53
2023-02-25T05:59:29.774Z,5.54
2023-02-25T06:01:59.936Z,5.48
2023-02-25T06:04:31.012Z,5.49
2023-02-25T06:07:07.145Z,5.59
2023-02-25T06:09:41.424Z,5.64
2023-02-25T06:12:11.661Z,5.59
2023-02-25T06:14:41.062Z,5.60
2023-02-25T06:17:21.185Z,5.48
2023-02-25T06:19:53.720Z,5.50
2023-02-25T06:22:24.278Z,5.54
2023-02-25T06:25:01.844Z,5.56
2023-02-25T06:27:33.216Z,5.65
2023-02-25T06:30:04.394Z,5.49
2023-02-25T06:32:34.433Z,5.49
2023-02-25T06:35:04.902Z,5.48
2023-02-25T06:37:41.767Z,5.60
2023-02-25T06:40:14.618Z,5.47
2023-02-25T06:42:43.980Z,5.54
2023-02-25T06:45:15.666Z,5.60
2023-02-25T06:47:49.710Z,5.45
2023-02-25T06:50:29.857Z,5.56
2023-02-25T06:53:08.831Z,5.62
2023-02-25T06:55:50.886Z,5.53
2023-02-25T06:58:21.389Z,5.64
2023-02-25T07:00:53.192Z,5.68
2023-02-25T07:03:24.042Z,5.67
2023-02-25T07:05:52.974Z,5.66
2023-02-25T07:08:24.948Z,5.64
2023-02-25T07:10:57.510Z,5.61
2023-02-25T07:13:31.650Z,5.74
2023-02-25T07:16:09.113Z,5.85
2023-02-25T07:18:46.123Z,5.70
2023-02-25T07:21:16.183Z,5.78
2023-02-25T07:23:55.045Z,5.72
2023-02-25T07:26:29.951Z,5.82
2023-02-25T07:29:05.596Z,5.83
2023-02-25T07:31:37.056Z,5.93
2023-02-25T07:34:14.105Z,5.98
2023-02-25T07:36:47.693Z,5.91
2023-02-25T07:39:21.740Z,5.91
2023-02-25T07:41:59.350Z,6.05
2023-02-25T07:44:31.418Z,6.16
2023-02-25T07:46:59.977Z,6.14
2023-02-25T07:49:29.379Z,6.14
2023-02-25T07:52:01.314Z,6.36
2023-02-25T07:54:30.869Z,6.28
2023-02-25T07:57:12.799Z,6.27
2023-02-25T07:59:41.927Z,6.22
2023-02-25T08:02:21.870Z,6.40
2023-02-25T08:04:55.466Z,6.54
2023-02-25T08:07:33.813Z,6.83
2023-02-25T08:10:10.152Z,6.63
2023-02-25T08:12:51.522Z,6.68
2023-02-25T08:15:23.510Z,6.75
2023-02-25T08:17:58.114Z,6.63
2023-02-25T08:20:27.280Z,6.63
2023-02-25T08:23:01.766Z,6.64
2023-02-25T08:25:30.986Z,6.88
2023-02-25T08:28:04.632Z,6.64
2023-02-25T08:30:34.235Z,6.83
2023-02-25T08:33:08.183Z,6.65
2023-02-25T08:35:39.146Z,6.57
2023-02-25T08:38:13.160Z,6.57
2023-02-25T08:40:51.348Z,6.77
2023-02-25T08:43:37.831Z,6.84
2023-02-25T08:46:10.111Z,6.82
2023-02-25T08:48:50.248Z,6.76
2023-02-25T08:51:25.352Z,6.57
2023-02-25T08:53:57.157Z,6.82
2023-02-25T08:56:27.513Z,6.50
2023-02-25T08:58:59.272Z,6.65
2023-02-25T09:01:47.026Z,6.79
2023-02-25T09:04:20.463Z,6.90
2023-02-25T09:06:51.346Z,6.60
2023-02-25T09:09:30.946Z,6.49
2023-02-25T09:12:05.305Z,6.64
2023-02-25T09:14:39.471Z,6.68
2023-02-25T09:17:17.013Z,6.80
2023-02-25T09:19:48.414Z,6.98
2023-02-25T09:22:21.204Z,6.57
2023-02-25T09:24:53.543Z,6.78
2023-02-25T09:27:22.683Z,6.65
2023-02-25T09:29:52.534Z,6.75
2023-02-25T09:32:34.121Z,6.73
2023-02-25T09:35:07.556Z,6.87
2023-02-25T09:37:44.335Z,6.75
2023-02-25T09:40:17.303Z,7.00
2023-02-25T09:42:56.465Z,7.14
2023-02-25T09:45:29.806Z,6.95
2023-02-25T09:48:10.656Z,7.17
2023-02-25T09:50:42.500Z,7.03
2023-02-25T09:53:21.204Z,7.16
2023-02-25T09:55:52.393Z,7.63
2023-02-25T09:58:30.622Z,7.25
2023-02-25T10:01:08.538Z,7.26
2023-02-25T10:03:51.383Z,7.43
2023-02-25T10:06:34.049Z,7.51
2023-02-25T10:09:12.637Z,7.42
2023-02-25T10:11:48.119Z,7.39
2023-02-25T10:17:29.272Z,7.26
2023-02-25T10:20:20.811Z,7.35
2023-02-25T10:22:57.747Z,7.50
2023-02-25T10:25:30.350Z,7.69
2023-02-25T10:28:04.062Z,7.45
2023-02-25T10:30:40.121Z,7.58
2023-02-25T10:33:24.685Z,7.46
2023-02-25T10:35:59.654Z,7.56
2023-02-25T10:38:31.415Z,7.78
2023-02-25T10:41:09.084Z,7.67
2023-02-25T10:43:44.134Z,7.73
2023-02-25T10:46:17.767Z,7.50
2023-02-25T10:48:58.886Z,7.82
2023-02-25T10:51:32.839Z,7.88
2023-02-25T10:54:07.567Z,7.85
2023-02-25T10:56:43.354Z,7.79
2023-02-25T10:59:31.662Z,8.03
2023-02-25T11:02:09.460Z,8.16
2023-02-25T11:04:43.598Z,8.22
2023-02-25T11:07:27.356Z,7.95
2023-02-25T11:10:19.127Z,8.00
2023-02-25T11:12:49.400Z,7.95
2023-02-25T11:15:31.576Z,8.09
2023-02-25T11:18:22.310Z,8.36
2023-02-25T11:20:55.388Z,8.19
2023-02-25T11:23:27.131Z,8.25
2023-02-25T11:26:07.353Z,7.77
2023-02-25T11:28:43.940Z,7.99
2023-02-25T11:31:20.903Z,8.03
2023-02-25T11:33:54.039Z,7.96
2023-02-25T11:36:36.578Z,8.02
2023-02-25T11:39:21.898Z,8.01
2023-02-25T11:41:52.918Z,8.00
2023-02-25T11:44:30.479Z,8.15
2023-02-25T11:47:13.875Z,8.31
2023-02-25T11:50:07.604Z,8.19
2023-02-25T11:52:44.071Z,8.02
2023-02-25T11:55:37.437Z,8.13
2023-02-25T11:58:18.029Z,8.38
2023-02-25T12:00:52.123Z,8.49
2023-02-25T12:03:56.773Z,8.47
2023-02-25T12:06:45.151Z,8.42
2023-02-25T12:09:48.630Z,7.99
2023-02-25T12:13:13.337Z,7.72
2023-02-25T12:16:28.817Z,7.62
2023-02-25T12:19:31.053Z,7.77
2023-02-25T12:22:56.284Z,7.64
2023-02-25T12:25:45.112Z,7.71
2023-02-25T12:28:51.961Z,7.69
2023-02-25T12:32:12.075Z,7.83
2023-02-25T12:35:31.370Z,8.08
2023-02-25T12:38:39.943Z,7.90
2023-02-25T12:41:39.200Z,8.07
2023-02-25T12:44:38.657Z,8.08
2023-02-25T12:47:27.368Z,7.83
2023-02-25T12:50:34.243Z,7.92
2023-02-25T12:53:23.348Z,7.89
2023-02-25T12:56:09.643Z,7.94
2023-02-25T12:59:32.937Z,8.21
2023-02-25T13:02:19.645Z,8.11
2023-02-25T13:05:26.178Z,7.98
2023-02-25T13:08:14.928Z,8.24
2023-02-25T13:11:00.534Z,8.32
2023-02-25T13:14:09.042Z,8.31
2023-02-25T13:16:55.213Z,8.31
2023-02-25T13:19:40.511Z,8.44
2023-02-25T13:22:26.451Z,8.53
2023-02-25T13:25:01.448Z,8.40
2023-02-25T13:28:04.122Z,8.17
2023-02-25T13:30:43.160Z,8.16
2023-02-25T13:33:25.444Z,8.12
2023-02-25T13:36:08.523Z,8.08
2023-02-25T13:39:01.731Z,8.43
2023-02-25T13:41:40.304Z,8.40
2023-02-25T13:44:40.619Z,8.39
2023-02-25T13:47:38.601Z,8.15
2023-02-25T13:50:41.032Z,7.99
2023-02-25T13:53:32.064Z,7.84
2023-02-25T13:56:18.777Z,7.63
2023-02-25T13:59:02.587Z,7.78
2023-02-25T14:01:43.037Z,7.98
2023-02-25T14:04:48.852Z,8.36
2023-02-25T14:07:55.520Z,8.25
2023-02-25T14:10:44.724Z,8.18
2023-02-25T14:13:48.516Z,8.22
2023-02-25T14:16:31.040Z,7.97
2023-02-25T14:19:28.086Z,7.90
2023-02-25T14:22:40.218Z,8.11
2023-02-25T14:25:28.930Z,7.72
2023-02-25T14:28:10.986Z,8.00
2023-02-25T14:30:56.200Z,7.88
2023-02-25T14:33:57.815Z,7.81
2023-02-25T14:36:59.167Z,7.90
2023-02-25T14:39:48.385Z,7.96
2023-02-25T14:42:47.206Z,8.15
2023-02-25T14:45:38.337Z,8.23
2023-02-25T14:48:16.239Z,8.41
2023-02-25T14:50:59.688Z,8.57
2023-02-25T14:53:41.595Z,8.16
2023-02-25T14:56:51.589Z,8.10
2023-02-25T14:59:51.090Z,8.33
2023-02-25T15:02:57.516Z,7.90
2023-02-25T15:05:57.297Z,7.94
2023-02-25T15:08:59.879Z,7.77
2023-02-25T15:12:26.183Z,8.00
2023-02-25T15:15:30.081Z,7.76
2023-02-25T15:18:30.539Z,8.02
2023-02-25T15:21:08.964Z,8.05
2023-02-25T15:23:54.511Z,7.99
2023-02-25T15:26:42.504Z,7.89
2023-02-25T15:29:51.048Z,7.76
2023-02-25T15:32:42.249Z,7.82
2023-02-25T15:35:22.883Z,7.76
2023-02-25T15:38:15.463Z,7.77
2023-02-25T15:40:57.327Z,7.57
2023-02-25T15:43:53.499Z,7.57
2023-02-25T15:46:55.313Z,7.57
2023-02-25T15:49:30.133Z,7.52
2023-02-25T15:52:09.439Z,7.54
2023-02-25T15:54:52.762Z,7.65
2023-02-25T15:57:42.280Z,7.46
2023-02-25T16:00:57.618Z,7.64
2023-02-25T16:03:47.303Z,7.55
2023-02-25T16:06:25.065Z,7.59
2023-02-25T16:09:11.818Z,7.79
2023-02-25T16:11:52.306Z,7.70
2023-02-25T16:14:29.012Z,7.44
2023-02-25T16:17:07.052Z,7.65
2023-02-25T16:19:42.020Z,7.51
2023-02-25T16:22:28.427Z,7.30
2023-02-25T16:27:58.423Z,7.14
2023-02-25T16:30:36.263Z,7.06
2023-02-25T16:33:22.300Z,6.81
2023-02-25T16:36:07.539Z,6.57
2023-02-25T16:38:45.332Z,6.03
2023-02-25T16:41:19.275Z,5.69
2023-02-25T16:43:55.537Z,5.42
2023-02-25T16:46:35.183Z,5.17
2023-02-25T16:49:13.852Z,5.27
2023-02-25T16:51:59.868Z,5.55
2023-02-25T16:54:41.777Z,5.48
2023-02-25T16:57:28.727Z,5.25
2023-02-25T17:00:19.664Z,5.22
2023-02-25T17:02:55.510Z,5.24
2023-02-25T17:05:33.912Z,5.22
2023-02-25T17:08:09.049Z,5.27
2023-02-25T17:10:53.350Z,5.16
2023-02-25T17:13:51.490Z,5.10
2023-02-25T17:16:34.977Z,5.39
2023-02-25T17:19:14.769Z,5.56
2023-02-25T17:21:53.826Z,5.70
2023-02-25T17:24:29.648Z,5.58
2023-02-25T17:27:11.482Z,5.76
2023-02-25T17:29:47.512Z,5.72
2023-02-25T17:32:31.369Z,5.29
2023-02-25T17:35:13.663Z,5.38
2023-02-25T17:37:52.969Z,5.31
2023-02-25T17:40:30.028Z,4.95
2023-02-25T17:43:31.915Z,5.28
2023-02-25T17:46:27.196Z,5.57
2023-02-25T17:49:23.106Z,5.59
2023-02-25T17:52:02.465Z,5.75
2023-02-25T17:54:42.045Z,5.69
2023-02-25T17:57:23.168Z,5.59
2023-02-25T17:59:57.989Z,5.43
2023-02-25T18:02:53.410Z,5.26
2023-02-25T18:05:44.987Z,5.10
2023-02-25T18:08:33.053Z,5.22
2023-02-25T18:11:06.052Z,5.32
2023-02-25T18:13:37.756Z,5.23
2023-02-25T18:16:55.095Z,5.09
2023-02-25T18:19:46.709Z,4.94
2023-02-25T18:22:38.905Z,5.13
2023-02-25T18:25:38.103Z,4.99
2023-02-25T18:28:17.642Z,5.13
2023-02-25T18:30:50.540Z,4.73
2023-02-25T18:33:30.040Z,4.83
2023-02-25T18:36:04.352Z,4.69
2023-02-25T18:38:38.651Z,4.66
2023-02-25T18:41:17.585Z,4.86
2023-02-25T18:43:52.248Z,4.88
2023-02-25T18:46:34.591Z,4.66
2023-02-25T18:49:09.252Z,4.63
2023-02-25T18:51:41.131Z,4.49
2023-02-25T18:54:26.444Z,4.80
2023-02-25T18:56:57.514Z,4.58
2023-02-25T18:59:36.106Z,4.82
2023-02-25T19:04:58.338Z,4.76
2023-02-25T19:07:41.442Z,4.80
2023-02-25T19:10:24.185Z,4.73
2023-02-25T19:13:03.767Z,4.70
2023-02-25T19:15:37.047Z,4.63
2023-02-25T19:18:08.961Z,4.36
2023-02-25T19:20:42.573Z,4.02
2023-02-25T19:23:33.840Z,4.37
2023-02-25T19:26:15.906Z,4.24
2023-02-25T19:28:57.901Z,4.31
2023-02-25T19:31:29.813Z,4.62
2023-02-25T19:34:08.673Z,4.71
2023-02-25T19:36:46.873Z,4.43
2023-02-25T19:39:29.330Z,4.51
2023-02-25T19:42:07.044Z,4.52
2023-02-25T19:44:39.893Z,4.56
2023-02-25T19:47:21.807Z,4.80
2023-02-25T19:50:02.681Z,4.58
2023-02-25T19:52:54.685Z,4.67
2023-02-25T19:55:27.909Z,4.90
2023-02-25T20:00:46.947Z,4.61
2023-02-25T20:03:28.370Z,4.55
2023-02-25T20:05:59.270Z,4.48
2023-02-25T20:08:38.958Z,4.32
2023-02-25T20:11:18.485Z,4.43
2023-02-25T20:13:58.768Z,4.64
2023-02-25T20:16:32.162Z,4.40
2023-02-25T20:19:14.405Z,4.37
2023-02-25T20:21:47.033Z,4.27
2023-02-25T20:24:18.010Z,4.56
2023-02-25T20:29:47.237Z,4.43
2023-02-25T20:32:29.761Z,4.33
2023-02-25T20:35:01.560Z,4.63
2023-02-25T20:37:56.178Z,4.60
2023-02-25T20:40:29.189Z,4.79
2023-02-25T20:43:09.919Z,4.60
2023-02-25T20:45:43.872Z,4.28
2023-02-25T20:48:24.346Z,4.40
2023-02-25T20:51:08.616Z,4.44
2023-02-25T20:53:42.454Z,4.51
2023-02-25T20:56:21.763Z,4.48
2023-02-25T20:59:12.038Z,4.20
2023-02-25T21:01:49.609Z,4.26
2023-02-25T21:04:32.587Z,4.17
2023-02-25T21:07:23.283Z,4.23
2023-02-25T21:09:57.614Z,4.39
2023-02-25T21:12:29.645Z,4.51
2023-02-25T21:15:14.324Z,4.60
2023-02-25T21:17:43.799Z,4.35
2023-02-25T21:20:17.243Z,4.52
2023-02-25T21:22:50.063Z,4.58
2023-02-25T21:25:26.833Z,4.33
2023-02-25T21:27:57.463Z,4.23
2023-02-25T21:30:35.723Z,4.22
2023-02-25T21:33:27.575Z,4.33
2023-02-25T21:36:01.493Z,4.28
2023-02-25T21:38:47.761Z,4.27
2023-02-25T21:41:20.606Z,4.38
2023-02-25T21:43:56.159Z,4.32
2023-02-25T21:46:33.660Z,4.65
2023-02-25T21:49:05.229Z,4.31
2023-02-25T21:51:48.777Z,4.33
2023-02-25T21:54:27.347Z,4.43
2023-02-25T21:56:57.921Z,4.58
2023-02-25T21:59:31.008Z,4.38
2023-02-25T22:02:23.585Z,4.49
2023-02-25T22:04:55.405Z,4.39
2023-02-25T22:07:27.502Z,4.25
2023-02-25T22:09:57.810Z,4.39
2023-02-25T22:12:29.996Z,4.39
2023-02-25T22:15:02.237Z,4.38
2023-02-25T22:17:47.314Z,4.12
2023-02-25T22:20:18.353Z,4.39
2023-02-25T22:22:50.439Z,4.55
2023-02-25T22:25:28.089Z,4.18
2023-02-25T22:28:04.992Z,4.50
2023-02-25T22:30:37.106Z,4.67
2023-02-25T22:33:09.125Z,4.55
2023-02-25T22:35:42.761Z,4.84
2023-02-25T22:38:17.437Z,4.57
2023-02-25T22:40:45.899Z,4.24
2023-02-25T22:43:24.875Z,4.32
2023-02-25T22:45:56.154Z,4.40
2023-02-25T22:48:33.651Z,4.25
2023-02-25T22:51:04.432Z,4.15
2023-02-25T22:53:35.349Z,4.38
2023-02-25T22:56:05.141Z,4.30
2023-02-25T22:58:43.365Z,4.50
2023-02-25T23:01:13.425Z,4.55
2023-02-25T23:03:53.633Z,4.41
2023-02-25T23:06:34.178Z,4.40
2023-02-25T23:09:18.288Z,4.39
2023-02-25T23:11:48.883Z,4.51
2023-02-25T23:14:21.008Z,4.49
2023-02-25T23:16:49.922Z,4.58
2023-02-25T23:19:31.453Z,4.46
2023-02-25T23:21:59.869Z,4.32
2023-02-25T23:24:31.843Z,4.39
2023-02-25T23:27:04.394Z,4.11
2023-02-25T23:29:38.397Z,4.19
2023-02-25T23:32:08.538Z,4.02
2023-02-25T23:34:50.186Z,4.14
2023-02-25T23:37:24.882Z,4.35
2023-02-25T23:39:56.762Z,4.32
2023-02-25T23:42:38.976Z,4.44
2023-02-25T23:45:10.471Z,4.39
2023-02-25T23:47:42.860Z,4.47
2023-02-25T23:50:19.200Z,4.29
2023-02-25T23:52:49.944Z,4.40
2023-02-25T23:55:29.300Z,4.47
2023-02-25T23:58:00.970Z,4.41
